Waynesfield, Ohio
Current Conditions -  °F | °C
As of 8:15 PM on Wednesday 22 Oct 2014 (Local Time) from KAOH Reporting Station
Scattered Clouds Scattered Clouds  
Wind Chill: 45°   Ceiling: Unl
Heat Index: 45°   Visibility: 10mi
Dew Point: 39°   Wind: 3mph
Humidity: 80%   Direction: 320°NW
Pressure: 30.28"   Gusts: NA
Location:  40.6°N, 83.98°W
Report Text: KAOH 230015Z AUTO 32003KT 10SM SCT026 07/04 A3028 RMK AO2 T00720039
Loading
Personal Weather Stations






























Interactive Weather Map New forecast layout! Learn more

10-Day Weather Forecast

Advertisements
Track Severe Weather on mobile